sensor_id;sensor_type;location;lat;lon;timestamp;P1;durP1;ratioP1;P2;durP2;ratioP2
66603;SDS011;53460;39.612;8.822;2022-11-20T00:00:45;6.07;;;2.15;;
66603;SDS011;53460;39.612;8.822;2022-11-20T00:03:12;5.68;;;2.00;;
66603;SDS011;53460;39.612;8.822;2022-11-20T00:05:37;6.53;;;1.88;;
66603;SDS011;53460;39.612;8.822;2022-11-20T00:08:03;4.07;;;1.50;;
66603;SDS011;53460;39.612;8.822;2022-11-20T00:10:29;6.75;;;1.88;;
66603;SDS011;53460;39.612;8.822;2022-11-20T00:12:54;3.75;;;1.83;;
66603;SDS011;53460;39.612;8.822;2022-11-20T00:15:20;3.35;;;1.92;;
66603;SDS011;53460;39.612;8.822;2022-11-20T00:17:45;6.55;;;1.58;;
66603;SDS011;53460;39.612;8.822;2022-11-20T00:20:11;6.10;;;1.67;;
66603;SDS011;53460;39.612;8.822;2022-11-20T00:22:37;5.13;;;1.63;;
66603;SDS011;53460;39.612;8.822;2022-11-20T00:25:02;3.80;;;1.45;;
66603;SDS011;53460;39.612;8.822;2022-11-20T00:27:28;6.78;;;2.13;;
66603;SDS011;53460;39.612;8.822;2022-11-20T00:29:53;6.63;;;1.95;;
66603;SDS011;53460;39.612;8.822;2022-11-20T00:32:19;6.05;;;1.63;;
66603;SDS011;53460;39.612;8.822;2022-11-20T00:34:44;5.82;;;1.95;;
66603;SDS011;53460;39.612;8.822;2022-11-20T00:37:10;4.63;;;1.75;;
66603;SDS011;53460;39.612;8.822;2022-11-20T00:39:35;4.63;;;1.48;;
66603;SDS011;53460;39.612;8.822;2022-11-20T00:42:01;3.40;;;1.17;;
66603;SDS011;53460;39.612;8.822;2022-11-20T00:44:26;2.92;;;1.30;;
66603;SDS011;53460;39.612;8.822;2022-11-20T00:46:52;3.90;;;1.40;;
66603;SDS011;53460;39.612;8.822;2022-11-20T00:49:17;6.50;;;1.65;;
66603;SDS011;53460;39.612;8.822;2022-11-20T00:51:43;4.53;;;1.40;;
66603;SDS011;53460;39.612;8.822;2022-11-20T00:54:08;5.53;;;1.52;;
66603;SDS011;53460;39.612;8.822;2022-11-20T00:56:34;1.95;;;1.33;;
66603;SDS011;53460;39.612;8.822;2022-11-20T00:58:59;5.93;;;1.75;;
66603;SDS011;53460;39.612;8.822;2022-11-20T01:01:26;3.85;;;1.90;;
66603;SDS011;53460;39.612;8.822;2022-11-20T01:03:53;3.83;;;1.35;;
66603;SDS011;53460;39.612;8.822;2022-11-20T01:06:20;3.13;;;1.70;;
66603;SDS011;53460;39.612;8.822;2022-11-20T01:08:46;4.18;;;2.08;;
66603;SDS011;53460;39.612;8.822;2022-11-20T01:11:13;8.20;;;1.98;;
66603;SDS011;53460;39.612;8.822;2022-11-20T01:13:39;5.30;;;1.40;;
66603;SDS011;53460;39.612;8.822;2022-11-20T01:16:25;5.63;;;1.63;;
66603;SDS011;53460;39.612;8.822;2022-11-20T01:18:51;5.00;;;1.83;;
66603;SDS011;53460;39.612;8.822;2022-11-20T01:21:22;3.70;;;1.67;;
66603;SDS011;53460;39.612;8.822;2022-11-20T01:23:48;4.40;;;1.45;;
66603;SDS011;53460;39.612;8.822;2022-11-20T01:26:21;5.35;;;1.52;;
66603;SDS011;53460;39.612;8.822;2022-11-20T01:28:47;6.78;;;2.25;;
66603;SDS011;53460;39.612;8.822;2022-11-20T01:31:13;7.38;;;1.40;;
66603;SDS011;53460;39.612;8.822;2022-11-20T01:33:39;3.83;;;1.38;;
66603;SDS011;53460;39.612;8.822;2022-11-20T01:36:06;4.50;;;1.27;;
66603;SDS011;53460;39.612;8.822;2022-11-20T01:38:32;4.45;;;1.00;;
66603;SDS011;53460;39.612;8.822;2022-11-20T01:40:57;4.75;;;1.60;;
66603;SDS011;53460;39.612;8.822;2022-11-20T01:43:23;5.47;;;1.65;;
66603;SDS011;53460;39.612;8.822;2022-11-20T01:45:52;8.13;;;1.95;;
66603;SDS011;53460;39.612;8.822;2022-11-20T01:48:21;6.40;;;1.70;;
66603;SDS011;53460;39.612;8.822;2022-11-20T01:50:48;7.63;;;1.83;;
66603;SDS011;53460;39.612;8.822;2022-11-20T01:53:14;6.47;;;1.60;;
66603;SDS011;53460;39.612;8.822;2022-11-20T01:55:43;3.75;;;1.45;;
66603;SDS011;53460;39.612;8.822;2022-11-20T01:58:10;6.50;;;1.20;;
66603;SDS011;53460;39.612;8.822;2022-11-20T02:00:36;5.53;;;1.40;;
66603;SDS011;53460;39.612;8.822;2022-11-20T02:03:12;4.80;;;1.60;;
66603;SDS011;53460;39.612;8.822;2022-11-20T02:05:47;4.10;;;1.27;;
66603;SDS011;53460;39.612;8.822;2022-11-20T02:08:14;5.82;;;1.60;;
66603;SDS011;53460;39.612;8.822;2022-11-20T02:10:40;6.45;;;1.52;;
66603;SDS011;53460;39.612;8.822;2022-11-20T02:13:06;4.90;;;1.58;;
66603;SDS011;53460;39.612;8.822;2022-11-20T02:15:50;3.47;;;1.45;;
66603;SDS011;53460;39.612;8.822;2022-11-20T02:18:17;7.53;;;1.80;;
66603;SDS011;53460;39.612;8.822;2022-11-20T02:20:43;8.45;;;1.70;;
66603;SDS011;53460;39.612;8.822;2022-11-20T02:23:14;6.40;;;1.73;;
66603;SDS011;53460;39.612;8.822;2022-11-20T02:25:42;8.15;;;1.73;;
66603;SDS011;53460;39.612;8.822;2022-11-20T02:28:08;4.93;;;2.10;;
66603;SDS011;53460;39.612;8.822;2022-11-20T02:30:35;6.88;;;1.50;;
66603;SDS011;53460;39.612;8.822;2022-11-20T02:33:00;5.82;;;1.85;;
66603;SDS011;53460;39.612;8.822;2022-11-20T02:37:53;5.43;;;1.30;;
66603;SDS011;53460;39.612;8.822;2022-11-20T02:40:19;4.28;;;1.13;;
66603;SDS011;53460;39.612;8.822;2022-11-20T02:42:44;8.27;;;1.42;;
66603;SDS011;53460;39.612;8.822;2022-11-20T02:45:10;5.35;;;1.38;;
66603;SDS011;53460;39.612;8.822;2022-11-20T02:47:36;3.88;;;1.50;;
66603;SDS011;53460;39.612;8.822;2022-11-20T02:50:01;3.92;;;1.27;;
66603;SDS011;53460;39.612;8.822;2022-11-20T02:52:27;5.05;;;1.20;;
66603;SDS011;53460;39.612;8.822;2022-11-20T02:54:52;4.60;;;1.45;;
66603;SDS011;53460;39.612;8.822;2022-11-20T02:57:18;6.10;;;1.20;;
66603;SDS011;53460;39.612;8.822;2022-11-20T02:59:43;6.70;;;1.38;;
66603;SDS011;53460;39.612;8.822;2022-11-20T03:02:09;4.07;;;1.17;;
66603;SDS011;53460;39.612;8.822;2022-11-20T03:04:34;5.93;;;1.27;;
66603;SDS011;53460;39.612;8.822;2022-11-20T03:07:00;3.83;;;1.20;;
66603;SDS011;53460;39.612;8.822;2022-11-20T03:09:25;4.93;;;1.10;;
66603;SDS011;53460;39.612;8.822;2022-11-20T03:11:51;4.43;;;1.63;;
66603;SDS011;53460;39.612;8.822;2022-11-20T03:14:17;13.88;;;6.15;;
66603;SDS011;53460;39.612;8.822;2022-11-20T03:16:42;10.90;;;4.75;;
66603;SDS011;53460;39.612;8.822;2022-11-20T03:19:07;8.98;;;3.30;;
66603;SDS011;53460;39.612;8.822;2022-11-20T03:21:33;5.47;;;2.22;;
66603;SDS011;53460;39.612;8.822;2022-11-20T03:23:59;3.45;;;1.70;;
66603;SDS011;53460;39.612;8.822;2022-11-20T03:26:25;2.65;;;1.20;;
66603;SDS011;53460;39.612;8.822;2022-11-20T03:28:52;3.80;;;1.45;;
66603;SDS011;53460;39.612;8.822;2022-11-20T03:31:19;3.75;;;1.25;;
66603;SDS011;53460;39.612;8.822;2022-11-20T03:33:45;5.70;;;2.03;;
66603;SDS011;53460;39.612;8.822;2022-11-20T03:36:12;5.15;;;1.38;;
66603;SDS011;53460;39.612;8.822;2022-11-20T03:38:38;5.28;;;1.50;;
66603;SDS011;53460;39.612;8.822;2022-11-20T03:41:04;4.78;;;1.10;;
66603;SDS011;53460;39.612;8.822;2022-11-20T03:43:30;6.53;;;1.67;;
66603;SDS011;53460;39.612;8.822;2022-11-20T03:45:56;4.72;;;1.75;;
66603;SDS011;53460;39.612;8.822;2022-11-20T03:48:22;6.25;;;1.65;;
66603;SDS011;53460;39.612;8.822;2022-11-20T03:50:47;5.10;;;1.20;;
66603;SDS011;53460;39.612;8.822;2022-11-20T03:53:13;4.78;;;1.50;;
66603;SDS011;53460;39.612;8.822;2022-11-20T03:55:39;6.15;;;1.90;;
66603;SDS011;53460;39.612;8.822;2022-11-20T03:58:04;5.10;;;1.55;;
66603;SDS011;53460;39.612;8.822;2022-11-20T04:00:30;5.90;;;1.30;;
66603;SDS011;53460;39.612;8.822;2022-11-20T04:02:58;5.57;;;1.25;;
66603;SDS011;53460;39.612;8.822;2022-11-20T04:05:24;3.75;;;1.83;;
66603;SDS011;53460;39.612;8.822;2022-11-20T04:07:50;4.75;;;1.35;;
66603;SDS011;53460;39.612;8.822;2022-11-20T04:10:15;6.55;;;1.35;;
66603;SDS011;53460;39.612;8.822;2022-11-20T04:12:41;10.07;;;1.73;;
66603;SDS011;53460;39.612;8.822;2022-11-20T04:15:06;3.35;;;1.30;;
66603;SDS011;53460;39.612;8.822;2022-11-20T04:17:32;5.82;;;1.45;;
66603;SDS011;53460;39.612;8.822;2022-11-20T04:19:57;4.68;;;1.30;;
66603;SDS011;53460;39.612;8.822;2022-11-20T04:22:23;5.68;;;1.52;;
66603;SDS011;53460;39.612;8.822;2022-11-20T04:24:49;5.07;;;1.52;;
66603;SDS011;53460;39.612;8.822;2022-11-20T04:27:14;4.75;;;1.30;;
66603;SDS011;53460;39.612;8.822;2022-11-20T04:29:40;8.63;;;1.42;;
66603;SDS011;53460;39.612;8.822;2022-11-20T04:32:05;10.27;;;1.98;;
66603;SDS011;53460;39.612;8.822;2022-11-20T04:34:31;5.68;;;1.50;;
66603;SDS011;53460;39.612;8.822;2022-11-20T04:36:56;3.75;;;1.40;;
66603;SDS011;53460;39.612;8.822;2022-11-20T04:39:22;9.32;;;1.35;;
66603;SDS011;53460;39.612;8.822;2022-11-20T04:41:47;7.30;;;1.38;;
66603;SDS011;53460;39.612;8.822;2022-11-20T04:44:13;18.65;;;2.60;;
66603;SDS011;53460;39.612;8.822;2022-11-20T04:46:40;9.43;;;1.65;;
66603;SDS011;53460;39.612;8.822;2022-11-20T04:49:06;8.25;;;1.33;;
66603;SDS011;53460;39.612;8.822;2022-11-20T04:51:32;5.70;;;1.85;;
66603;SDS011;53460;39.612;8.822;2022-11-20T04:53:57;5.82;;;1.70;;
66603;SDS011;53460;39.612;8.822;2022-11-20T04:56:23;5.22;;;1.48;;
66603;SDS011;53460;39.612;8.822;2022-11-20T04:58:49;6.00;;;1.45;;
66603;SDS011;53460;39.612;8.822;2022-11-20T05:01:18;4.95;;;1.25;;
66603;SDS011;53460;39.612;8.822;2022-11-20T05:03:44;5.50;;;1.35;;
66603;SDS011;53460;39.612;8.822;2022-11-20T05:06:14;6.20;;;1.50;;
66603;SDS011;53460;39.612;8.822;2022-11-20T05:08:40;4.70;;;1.60;;
66603;SDS011;53460;39.612;8.822;2022-11-20T05:11:10;6.60;;;1.85;;
66603;SDS011;53460;39.612;8.822;2022-11-20T05:13:36;4.30;;;1.77;;
66603;SDS011;53460;39.612;8.822;2022-11-20T05:16:05;6.60;;;1.80;;
66603;SDS011;53460;39.612;8.822;2022-11-20T05:18:31;5.93;;;1.42;;
66603;SDS011;53460;39.612;8.822;2022-11-20T05:20:57;5.55;;;1.83;;
66603;SDS011;53460;39.612;8.822;2022-11-20T05:23:23;8.27;;;1.73;;
66603;SDS011;53460;39.612;8.822;2022-11-20T05:25:51;11.60;;;1.75;;
66603;SDS011;53460;39.612;8.822;2022-11-20T05:28:17;7.97;;;2.00;;
66603;SDS011;53460;39.612;8.822;2022-11-20T05:30:42;7.40;;;1.80;;
66603;SDS011;53460;39.612;8.822;2022-11-20T05:33:07;7.43;;;2.22;;
66603;SDS011;53460;39.612;8.822;2022-11-20T05:35:33;7.60;;;1.42;;
66603;SDS011;53460;39.612;8.822;2022-11-20T05:37:59;8.80;;;1.60;;
66603;SDS011;53460;39.612;8.822;2022-11-20T05:40:24;10.30;;;2.08;;
66603;SDS011;53460;39.612;8.822;2022-11-20T05:42:50;9.90;;;1.70;;
66603;SDS011;53460;39.612;8.822;2022-11-20T05:45:15;10.43;;;2.15;;
66603;SDS011;53460;39.612;8.822;2022-11-20T05:47:41;8.57;;;1.45;;
66603;SDS011;53460;39.612;8.822;2022-11-20T05:50:06;10.10;;;2.47;;
66603;SDS011;53460;39.612;8.822;2022-11-20T05:52:32;8.27;;;2.13;;
66603;SDS011;53460;39.612;8.822;2022-11-20T05:54:57;8.55;;;1.90;;
66603;SDS011;53460;39.612;8.822;2022-11-20T05:57:23;9.70;;;4.65;;
66603;SDS011;53460;39.612;8.822;2022-11-20T05:59:48;13.23;;;4.45;;
66603;SDS011;53460;39.612;8.822;2022-11-20T06:02:14;8.48;;;2.95;;
66603;SDS011;53460;39.612;8.822;2022-11-20T06:04:39;7.25;;;1.73;;
66603;SDS011;53460;39.612;8.822;2022-11-20T06:07:05;9.15;;;1.85;;
66603;SDS011;53460;39.612;8.822;2022-11-20T06:09:30;12.00;;;2.15;;
66603;SDS011;53460;39.612;8.822;2022-11-20T06:11:56;8.65;;;2.03;;
66603;SDS011;53460;39.612;8.822;2022-11-20T06:14:21;9.32;;;2.28;;
66603;SDS011;53460;39.612;8.822;2022-11-20T06:16:47;6.05;;;1.30;;
66603;SDS011;53460;39.612;8.822;2022-11-20T06:19:12;12.25;;;2.05;;
66603;SDS011;53460;39.612;8.822;2022-11-20T06:21:38;4.20;;;2.10;;
66603;SDS011;53460;39.612;8.822;2022-11-20T06:24:03;6.13;;;2.35;;
66603;SDS011;53460;39.612;8.822;2022-11-20T06:26:29;8.13;;;1.50;;
66603;SDS011;53460;39.612;8.822;2022-11-20T06:28:55;6.93;;;1.45;;
66603;SDS011;53460;39.612;8.822;2022-11-20T06:31:22;12.07;;;2.83;;
66603;SDS011;53460;39.612;8.822;2022-11-20T06:33:48;7.25;;;1.73;;
66603;SDS011;53460;39.612;8.822;2022-11-20T06:36:14;8.43;;;1.88;;
66603;SDS011;53460;39.612;8.822;2022-11-20T06:38:40;10.80;;;1.48;;
66603;SDS011;53460;39.612;8.822;2022-11-20T06:41:06;7.28;;;1.65;;
66603;SDS011;53460;39.612;8.822;2022-11-20T06:43:32;9.07;;;3.05;;
66603;SDS011;53460;39.612;8.822;2022-11-20T06:45:58;6.93;;;1.73;;
66603;SDS011;53460;39.612;8.822;2022-11-20T06:48:25;4.45;;;1.52;;
66603;SDS011;53460;39.612;8.822;2022-11-20T06:50:51;5.70;;;1.58;;
66603;SDS011;53460;39.612;8.822;2022-11-20T06:53:16;7.25;;;1.77;;
66603;SDS011;53460;39.612;8.822;2022-11-20T06:55:43;8.07;;;1.75;;
66603;SDS011;53460;39.612;8.822;2022-11-20T06:58:09;5.85;;;2.00;;
66603;SDS011;53460;39.612;8.822;2022-11-20T07:00:34;6.07;;;2.15;;
66603;SDS011;53460;39.612;8.822;2022-11-20T07:03:03;8.23;;;1.58;;
66603;SDS011;53460;39.612;8.822;2022-11-20T07:05:29;4.85;;;1.38;;
66603;SDS011;53460;39.612;8.822;2022-11-20T07:07:57;8.68;;;1.70;;
66603;SDS011;53460;39.612;8.822;2022-11-20T07:10:23;11.35;;;2.25;;
66603;SDS011;53460;39.612;8.822;2022-11-20T07:12:49;4.38;;;1.88;;
66603;SDS011;53460;39.612;8.822;2022-11-20T07:15:15;10.07;;;1.55;;
66603;SDS011;53460;39.612;8.822;2022-11-20T07:17:41;11.80;;;3.75;;
66603;SDS011;53460;39.612;8.822;2022-11-20T07:20:06;8.50;;;3.72;;
66603;SDS011;53460;39.612;8.822;2022-11-20T07:22:32;9.93;;;2.83;;
66603;SDS011;53460;39.612;8.822;2022-11-20T07:24:58;9.32;;;2.03;;
66603;SDS011;53460;39.612;8.822;2022-11-20T07:27:23;8.80;;;2.05;;
66603;SDS011;53460;39.612;8.822;2022-11-20T07:29:49;7.90;;;2.42;;
66603;SDS011;53460;39.612;8.822;2022-11-20T07:32:14;5.20;;;1.92;;
66603;SDS011;53460;39.612;8.822;2022-11-20T07:34:40;5.63;;;1.75;;
66603;SDS011;53460;39.612;8.822;2022-11-20T07:37:05;13.63;;;1.73;;
66603;SDS011;53460;39.612;8.822;2022-11-20T07:39:31;8.90;;;2.65;;
66603;SDS011;53460;39.612;8.822;2022-11-20T07:41:56;10.80;;;1.92;;
66603;SDS011;53460;39.612;8.822;2022-11-20T07:44:22;8.55;;;1.98;;
66603;SDS011;53460;39.612;8.822;2022-11-20T07:46:47;16.27;;;2.30;;
66603;SDS011;53460;39.612;8.822;2022-11-20T07:49:13;9.88;;;2.22;;
66603;SDS011;53460;39.612;8.822;2022-11-20T07:51:51;8.10;;;1.98;;
66603;SDS011;53460;39.612;8.822;2022-11-20T07:54:19;13.90;;;2.20;;
66603;SDS011;53460;39.612;8.822;2022-11-20T07:56:44;8.50;;;2.55;;
66603;SDS011;53460;39.612;8.822;2022-11-20T07:59:10;12.68;;;2.58;;
66603;SDS011;53460;39.612;8.822;2022-11-20T08:01:37;9.65;;;2.42;;
66603;SDS011;53460;39.612;8.822;2022-11-20T08:04:03;8.60;;;2.53;;
66603;SDS011;53460;39.612;8.822;2022-11-20T08:06:28;7.50;;;2.67;;
66603;SDS011;53460;39.612;8.822;2022-11-20T08:08:53;13.15;;;3.10;;
66603;SDS011;53460;39.612;8.822;2022-11-20T08:11:19;7.72;;;2.22;;
66603;SDS011;53460;39.612;8.822;2022-11-20T08:14:03;5.78;;;2.17;;
66603;SDS011;53460;39.612;8.822;2022-11-20T08:16:37;7.53;;;1.90;;
66603;SDS011;53460;39.612;8.822;2022-11-20T08:19:03;22.10;;;2.90;;
66603;SDS011;53460;39.612;8.822;2022-11-20T08:21:29;11.60;;;2.78;;
66603;SDS011;53460;39.612;8.822;2022-11-20T08:23:55;8.80;;;2.30;;
66603;SDS011;53460;39.612;8.822;2022-11-20T08:26:21;9.30;;;2.22;;
66603;SDS011;53460;39.612;8.822;2022-11-20T08:28:47;9.65;;;2.67;;
66603;SDS011;53460;39.612;8.822;2022-11-20T08:31:12;12.18;;;3.00;;
66603;SDS011;53460;39.612;8.822;2022-11-20T08:33:38;9.13;;;2.25;;
66603;SDS011;53460;39.612;8.822;2022-11-20T08:36:03;7.45;;;2.05;;
66603;SDS011;53460;39.612;8.822;2022-11-20T08:38:30;11.65;;;2.20;;
66603;SDS011;53460;39.612;8.822;2022-11-20T08:40:56;10.45;;;1.98;;
66603;SDS011;53460;39.612;8.822;2022-11-20T08:43:48;12.17;;;2.83;;
66603;SDS011;53460;39.612;8.822;2022-11-20T08:46:14;10.80;;;3.30;;
66603;SDS011;53460;39.612;8.822;2022-11-20T08:48:39;10.60;;;3.40;;
66603;SDS011;53460;39.612;8.822;2022-11-20T08:51:05;8.75;;;2.80;;
66603;SDS011;53460;39.612;8.822;2022-11-20T08:53:30;8.65;;;2.92;;
66603;SDS011;53460;39.612;8.822;2022-11-20T08:55:56;7.63;;;2.03;;
66603;SDS011;53460;39.612;8.822;2022-11-20T08:58:22;5.85;;;1.77;;
66603;SDS011;53460;39.612;8.822;2022-11-20T09:00:47;5.82;;;1.90;;
66603;SDS011;53460;39.612;8.822;2022-11-20T09:03:13;7.68;;;2.00;;
66603;SDS011;53460;39.612;8.822;2022-11-20T09:05:38;6.60;;;1.48;;
66603;SDS011;53460;39.612;8.822;2022-11-20T09:08:04;10.27;;;2.00;;
66603;SDS011;53460;39.612;8.822;2022-11-20T09:10:30;8.52;;;1.98;;
66603;SDS011;53460;39.612;8.822;2022-11-20T09:12:55;10.45;;;2.10;;
66603;SDS011;53460;39.612;8.822;2022-11-20T09:15:21;7.82;;;1.95;;
66603;SDS011;53460;39.612;8.822;2022-11-20T09:17:53;9.52;;;2.40;;
66603;SDS011;53460;39.612;8.822;2022-11-20T09:20:19;6.90;;;2.03;;
66603;SDS011;53460;39.612;8.822;2022-11-20T09:22:45;8.90;;;1.92;;
66603;SDS011;53460;39.612;8.822;2022-11-20T09:25:10;8.30;;;1.92;;
66603;SDS011;53460;39.612;8.822;2022-11-20T09:27:35;12.25;;;2.28;;
66603;SDS011;53460;39.612;8.822;2022-11-20T09:30:02;11.20;;;2.40;;
66603;SDS011;53460;39.612;8.822;2022-11-20T09:32:27;8.65;;;1.90;;
66603;SDS011;53460;39.612;8.822;2022-11-20T09:34:53;9.13;;;2.58;;
66603;SDS011;53460;39.612;8.822;2022-11-20T09:37:18;9.45;;;1.83;;
66603;SDS011;53460;39.612;8.822;2022-11-20T09:39:44;9.43;;;1.90;;
66603;SDS011;53460;39.612;8.822;2022-11-20T09:52:25;9.52;;;2.35;;
66603;SDS011;53460;39.612;8.822;2022-11-20T09:54:52;8.82;;;2.17;;
66603;SDS011;53460;39.612;8.822;2022-11-20T09:57:20;8.25;;;2.30;;
66603;SDS011;53460;39.612;8.822;2022-11-20T09:59:51;14.18;;;2.42;;
66603;SDS011;53460;39.612;8.822;2022-11-20T10:04:49;11.18;;;2.10;;
66603;SDS011;53460;39.612;8.822;2022-11-20T10:07:19;7.10;;;2.10;;
66603;SDS011;53460;39.612;8.822;2022-11-20T10:09:54;7.68;;;1.75;;
66603;SDS011;53460;39.612;8.822;2022-11-20T10:15:33;8.02;;;2.00;;
66603;SDS011;53460;39.612;8.822;2022-11-20T10:20:36;5.80;;;2.15;;
66603;SDS011;53460;39.612;8.822;2022-11-20T10:23:11;7.10;;;2.60;;
66603;SDS011;53460;39.612;8.822;2022-11-20T10:25:39;9.50;;;2.20;;
66603;SDS011;53460;39.612;8.822;2022-11-20T10:30:40;9.30;;;3.17;;
66603;SDS011;53460;39.612;8.822;2022-11-20T10:33:17;9.05;;;2.60;;
66603;SDS011;53460;39.612;8.822;2022-11-20T10:38:28;8.68;;;1.98;;
66603;SDS011;53460;39.612;8.822;2022-11-20T10:40:57;8.80;;;2.75;;
66603;SDS011;53460;39.612;8.822;2022-11-20T10:43:44;7.30;;;2.40;;
66603;SDS011;53460;39.612;8.822;2022-11-20T10:46:11;5.82;;;2.25;;
66603;SDS011;53460;39.612;8.822;2022-11-20T10:48:39;6.38;;;1.80;;
66603;SDS011;53460;39.612;8.822;2022-11-20T10:53:57;6.38;;;2.00;;
66603;SDS011;53460;39.612;8.822;2022-11-20T10:56:38;7.78;;;2.97;;
66603;SDS011;53460;39.612;8.822;2022-11-20T11:01:51;11.52;;;3.58;;
66603;SDS011;53460;39.612;8.822;2022-11-20T11:06:54;9.73;;;3.03;;
66603;SDS011;53460;39.612;8.822;2022-11-20T11:09:24;13.90;;;2.95;;
66603;SDS011;53460;39.612;8.822;2022-11-20T11:11:53;8.05;;;3.50;;
66603;SDS011;53460;39.612;8.822;2022-11-20T11:14:18;8.73;;;4.05;;
66603;SDS011;53460;39.612;8.822;2022-11-20T11:16:54;7.07;;;2.33;;
66603;SDS011;53460;39.612;8.822;2022-11-20T11:19:20;5.85;;;2.30;;
66603;SDS011;53460;39.612;8.822;2022-11-20T11:21:55;7.57;;;2.00;;
66603;SDS011;53460;39.612;8.822;2022-11-20T11:24:22;4.35;;;1.90;;
66603;SDS011;53460;39.612;8.822;2022-11-20T11:27:01;8.65;;;2.88;;
66603;SDS011;53460;39.612;8.822;2022-11-20T11:29:32;11.32;;;4.38;;
66603;SDS011;53460;39.612;8.822;2022-11-20T11:34:30;8.05;;;2.88;;
66603;SDS011;53460;39.612;8.822;2022-11-20T11:36:57;9.88;;;3.05;;
66603;SDS011;53460;39.612;8.822;2022-11-20T11:39:23;9.55;;;3.10;;
66603;SDS011;53460;39.612;8.822;2022-11-20T11:41:49;8.18;;;2.15;;
66603;SDS011;53460;39.612;8.822;2022-11-20T11:47:10;11.02;;;3.53;;
66603;SDS011;53460;39.612;8.822;2022-11-20T11:49:36;12.13;;;5.43;;
66603;SDS011;53460;39.612;8.822;2022-11-20T12:02:15;7.45;;;2.60;;
66603;SDS011;53460;39.612;8.822;2022-11-20T12:04:46;12.73;;;3.10;;
66603;SDS011;53460;39.612;8.822;2022-11-20T12:07:19;7.95;;;2.47;;
66603;SDS011;53460;39.612;8.822;2022-11-20T12:09:48;10.73;;;3.03;;
66603;SDS011;53460;39.612;8.822;2022-11-20T12:12:18;8.98;;;2.38;;
66603;SDS011;53460;39.612;8.822;2022-11-20T12:14:46;9.10;;;2.30;;
66603;SDS011;53460;39.612;8.822;2022-11-20T12:17:13;8.27;;;2.75;;
66603;SDS011;53460;39.612;8.822;2022-11-20T12:19:39;9.90;;;2.40;;
66603;SDS011;53460;39.612;8.822;2022-11-20T12:30:35;5.65;;;1.77;;
66603;SDS011;53460;39.612;8.822;2022-11-20T12:32:57;8.57;;;2.28;;
66603;SDS011;53460;39.612;8.822;2022-11-20T12:40:45;9.20;;;1.65;;
66603;SDS011;53460;39.612;8.822;2022-11-20T12:43:27;6.35;;;1.65;;
66603;SDS011;53460;39.612;8.822;2022-11-20T12:46:27;8.55;;;1.60;;
66603;SDS011;53460;39.612;8.822;2022-11-20T12:49:03;6.32;;;1.65;;
66603;SDS011;53460;39.612;8.822;2022-11-20T12:51:34;7.28;;;1.35;;
66603;SDS011;53460;39.612;8.822;2022-11-20T12:57:06;7.03;;;2.95;;
66603;SDS011;53460;39.612;8.822;2022-11-20T13:02:25;6.32;;;2.40;;
66603;SDS011;53460;39.612;8.822;2022-11-20T13:07:24;9.68;;;2.83;;
66603;SDS011;53460;39.612;8.822;2022-11-20T13:09:51;9.93;;;1.63;;
66603;SDS011;53460;39.612;8.822;2022-11-20T13:12:25;8.45;;;2.30;;
66603;SDS011;53460;39.612;8.822;2022-11-20T13:18:06;6.95;;;2.08;;
66603;SDS011;53460;39.612;8.822;2022-11-20T13:20:12;8.38;;;2.25;;
66603;SDS011;53460;39.612;8.822;2022-11-20T13:22:43;8.75;;;2.05;;
66603;SDS011;53460;39.612;8.822;2022-11-20T13:25:09;6.05;;;1.98;;
66603;SDS011;53460;39.612;8.822;2022-11-20T13:27:35;6.65;;;2.13;;
66603;SDS011;53460;39.612;8.822;2022-11-20T13:30:02;8.48;;;1.75;;
66603;SDS011;53460;39.612;8.822;2022-11-20T13:32:42;6.18;;;1.63;;
66603;SDS011;53460;39.612;8.822;2022-11-20T13:35:12;5.32;;;1.65;;
66603;SDS011;53460;39.612;8.822;2022-11-20T13:37:48;7.10;;;1.85;;
66603;SDS011;53460;39.612;8.822;2022-11-20T13:40:24;2.72;;;1.20;;
66603;SDS011;53460;39.612;8.822;2022-11-20T13:43:10;9.50;;;1.92;;
66603;SDS011;53460;39.612;8.822;2022-11-20T13:45:39;6.28;;;1.60;;
66603;SDS011;53460;39.612;8.822;2022-11-20T13:48:16;5.28;;;1.90;;
66603;SDS011;53460;39.612;8.822;2022-11-20T13:50:47;6.80;;;1.45;;
66603;SDS011;53460;39.612;8.822;2022-11-20T13:55:54;5.50;;;1.48;;
66603;SDS011;53460;39.612;8.822;2022-11-20T14:03:32;4.13;;;1.45;;
66603;SDS011;53460;39.612;8.822;2022-11-20T14:06:00;3.95;;;1.40;;
66603;SDS011;53460;39.612;8.822;2022-11-20T14:08:38;4.03;;;1.25;;
66603;SDS011;53460;39.612;8.822;2022-11-20T14:11:06;2.78;;;1.17;;
66603;SDS011;53460;39.612;8.822;2022-11-20T14:13:32;4.97;;;1.67;;
66603;SDS011;53460;39.612;8.822;2022-11-20T14:15:57;6.40;;;1.67;;
66603;SDS011;53460;39.612;8.822;2022-11-20T14:18:25;5.32;;;1.50;;
66603;SDS011;53460;39.612;8.822;2022-11-20T14:20:50;7.55;;;1.60;;
66603;SDS011;53460;39.612;8.822;2022-11-20T14:23:26;3.90;;;2.10;;
66603;SDS011;53460;39.612;8.822;2022-11-20T14:25:52;7.15;;;1.83;;
66603;SDS011;53460;39.612;8.822;2022-11-20T14:28:25;9.38;;;2.22;;
66603;SDS011;53460;39.612;8.822;2022-11-20T14:30:51;11.23;;;1.73;;
66603;SDS011;53460;39.612;8.822;2022-11-20T14:33:17;6.25;;;1.80;;
66603;SDS011;53460;39.612;8.822;2022-11-20T14:35:46;9.52;;;2.22;;
66603;SDS011;53460;39.612;8.822;2022-11-20T14:38:13;6.93;;;1.80;;
66603;SDS011;53460;39.612;8.822;2022-11-20T14:40:39;11.55;;;2.97;;
66603;SDS011;53460;39.612;8.822;2022-11-20T14:45:42;11.13;;;3.03;;
66603;SDS011;53460;39.612;8.822;2022-11-20T14:48:08;10.77;;;2.22;;
66603;SDS011;53460;39.612;8.822;2022-11-20T14:50:34;9.57;;;2.38;;
66603;SDS011;53460;39.612;8.822;2022-11-20T14:53:00;9.20;;;2.10;;
66603;SDS011;53460;39.612;8.822;2022-11-20T14:57:55;8.73;;;1.80;;
66603;SDS011;53460;39.612;8.822;2022-11-20T15:00:21;6.88;;;1.50;;
66603;SDS011;53460;39.612;8.822;2022-11-20T15:02:47;11.30;;;2.20;;
66603;SDS011;53460;39.612;8.822;2022-11-20T15:05:14;10.20;;;2.47;;
66603;SDS011;53460;39.612;8.822;2022-11-20T15:07:41;11.35;;;2.53;;
66603;SDS011;53460;39.612;8.822;2022-11-20T15:10:26;6.53;;;1.90;;
66603;SDS011;53460;39.612;8.822;2022-11-20T15:12:55;14.55;;;2.38;;
66603;SDS011;53460;39.612;8.822;2022-11-20T15:15:27;9.60;;;2.20;;
66603;SDS011;53460;39.612;8.822;2022-11-20T15:17:55;7.85;;;2.25;;
66603;SDS011;53460;39.612;8.822;2022-11-20T15:20:21;8.98;;;2.47;;
66603;SDS011;53460;39.612;8.822;2022-11-20T15:22:49;10.15;;;2.10;;
66603;SDS011;53460;39.612;8.822;2022-11-20T15:25:15;8.85;;;2.05;;
66603;SDS011;53460;39.612;8.822;2022-11-20T15:27:44;7.85;;;2.75;;
66603;SDS011;53460;39.612;8.822;2022-11-20T15:30:17;10.20;;;2.55;;
66603;SDS011;53460;39.612;8.822;2022-11-20T15:32:43;13.02;;;2.90;;
66603;SDS011;53460;39.612;8.822;2022-11-20T15:35:09;12.50;;;4.20;;
66603;SDS011;53460;39.612;8.822;2022-11-20T15:37:35;9.60;;;2.85;;
66603;SDS011;53460;39.612;8.822;2022-11-20T15:40:01;10.75;;;2.38;;
66603;SDS011;53460;39.612;8.822;2022-11-20T15:42:26;7.80;;;1.88;;
66603;SDS011;53460;39.612;8.822;2022-11-20T15:44:52;8.07;;;2.22;;
66603;SDS011;53460;39.612;8.822;2022-11-20T15:47:17;10.95;;;2.30;;
66603;SDS011;53460;39.612;8.822;2022-11-20T15:49:43;10.40;;;2.63;;
66603;SDS011;53460;39.612;8.822;2022-11-20T15:52:15;10.10;;;2.58;;
66603;SDS011;53460;39.612;8.822;2022-11-20T15:54:41;11.85;;;2.42;;
66603;SDS011;53460;39.612;8.822;2022-11-20T15:57:07;8.15;;;1.92;;
66603;SDS011;53460;39.612;8.822;2022-11-20T15:59:32;9.73;;;2.20;;
66603;SDS011;53460;39.612;8.822;2022-11-20T16:01:58;8.60;;;2.10;;
66603;SDS011;53460;39.612;8.822;2022-11-20T16:04:23;7.70;;;2.70;;
66603;SDS011;53460;39.612;8.822;2022-11-20T16:06:49;8.90;;;2.17;;
66603;SDS011;53460;39.612;8.822;2022-11-20T16:09:14;10.27;;;2.35;;
66603;SDS011;53460;39.612;8.822;2022-11-20T16:11:40;12.82;;;2.53;;
66603;SDS011;53460;39.612;8.822;2022-11-20T16:14:05;8.93;;;2.20;;